Latest Coastal Weather Observations for Stenhouse Bay

IDS60701

Issued at 2:21 pm CST Tuesday 23 May 2017 (issued every 10 minutes, with the page automatically refreshed every 10 minutes)

About coastal observations | Map of coastal stations | Coastal observations for SA | Marine services | Other Formats
Station Details ID: 022049 Name: STENHOUSE BAY Lat: -35.28 Lon: 136.94 Height: 42.0 m
Data from the previous 72 hours. | See also: Recent months at Stenhouse Bay
Date/Time
CST
Temp
°C
Wind Pressure Rain since
9am
mm
Weather Cloud Vis
km
Sea
Height
m
Swell
Dir  Spd
kts
Gust
kts
hPa Trend Height
m
Period
s
Dir
23/02:00pm 16.2 NW 14 19 1013.9 - 3.8 - - - - - - -
23/01:30pm 14.7 NW 14 20 1014.5 - 3.8 - - - - - - -
23/01:00pm 16.3 NW 17 24 1014.7 - 2.4 - - - - - - -
23/12:30pm 16.5 NW 16 23 1015.0 - 2.4 - - - - - - -
23/12:00pm 16.4 NW 12 18 1015.2 - 2.4 Recent precip. - - - - - -
23/11:30am 14.8 WNW 15 22 1015.8 - 2.4 - - - - - - -
23/11:00am 18.1 NW 17 24 1015.9 - 0.0 - - - - - - -
23/10:30am 17.5 NW 15 22 1016.0 - 0.0 - - - - - - -
23/10:00am 17.0 NW 15 20 1016.1 - 0.0 - - - - - - -
23/09:30am 17.1 NW 10 17 1016.1 - 0.0 - - - - - - -
23/09:00am 15.9 NW 11 16 1016.1 - 0.4 - - - - - - -
23/08:30am 15.4 NW 10 13 1016.2 - 0.4 - - - - - - -
23/08:00am 13.1 NW 8 10 1015.9 - 0.4 - - - - - - -
23/07:30am 12.3 NW 7 8 1016.0 - 0.4 - - - - - - -
23/07:00am 12.5 NW 8 9 1015.7 - 0.4 - - - - - - -
23/06:30am 12.3 NW 7 8 1015.4 - 0.4 - - - - - - -
23/06:00am 12.5 NW 7 8 1015.5 - 0.4 - - - - - - -
23/05:30am 12.0 NW 7 8 1015.5 - 0.4 - - - - - - -
23/05:00am 12.0 NW 7 8 1015.4 - 0.4 - - - - - - -
23/04:30am 12.0 WNW 7 8 1015.3 - 0.4 - - - - - - -
23/04:00am 12.7 WNW 8 10 1015.4 - 0.4 - - - - - - -
23/03:30am 12.3 WNW 6 8 1015.5 - 0.4 - - - - - - -
23/03:00am 12.3 WNW 5 6 1015.5 - 0.4 - - - - - - -
23/02:30am 12.7 WNW 6 6 1015.6 - 0.4 - - - - - - -
23/02:00am 13.2 WNW 6 8 1015.8 - 0.4 - - - - - - -
23/01:30am 13.5 WNW 7 9 1015.7 - 0.4 - - - - - - -
23/01:00am 13.5 W 7 8 1015.6 - 0.4 - - - - - - -
23/12:30am 13.4 W 7 8 1015.7 - 0.4 - - - - - - -
23/12:00am 14.2 W 7 9 1015.7 - 0.4 - - - - - - -
 
Date/Time
CST
Temp
°C
Wind Pressure Rain since
9am
mm
Weather Cloud Vis
km
Sea
Height
m
Swell
Dir  Spd
kts
Gust
kts
hPa Trend Height
m
Period
s
Dir
22/11:30pm 14.3 WSW 7 10 1015.8 - 0.4 - - - - - - -
22/11:00pm 14.8 W 7 10 1015.7 - 0.4 - - - - - - -
22/10:30pm 15.1 W 7 10 1015.7 - 0.4 - - - - - - -
22/10:00pm 14.9 W 6 8 1015.5 - 0.4 - - - - - - -
22/09:30pm 15.4 W 6 9 1015.4 - 0.4 - - - - - - -
22/09:00pm 15.4 W 9 12 1015.0 - 0.4 - - - - - - -
22/08:30pm 15.7 W 10 14 1014.8 - 0.4 - - - - - - -
22/08:00pm 16.2 W 9 13 1014.3 - 0.4 - - - - - - -
22/07:30pm 16.2 W 6 10 1013.7 - 0.4 - - - - - - -
22/07:00pm 16.0 WNW 9 12 1013.4 - 0.4 - - - - - - -
22/06:30pm 16.0 W 8 13 1012.8 - 0.4 - - - - - - -
22/06:00pm 16.3 WNW 8 12 1012.6 - 0.4 - - - - - - -
22/05:30pm 16.4 W 10 14 1012.0 - 0.4 - - - - - - -
22/05:00pm 16.6 WNW 11 17 1011.6 - 0.4 - - - - - - -
22/04:30pm 16.7 WNW 11 15 1011.1 - 0.2 - - - - - - -
22/04:00pm 18.7 WNW 9 13 1010.6 - 0.0 - - - - - - -
22/03:30pm 19.1 WNW 10 15 1010.3 - 0.0 - - - - - - -
22/03:00pm 19.7 NW 13 21 1010.6 - 0.0 - - - - - - -
22/02:30pm 20.3 NNW 18 25 1010.0 - 0.0 - - - - - - -
22/02:00pm 20.9 NNW 20 28 1009.8 - 0.0 - - - - - - -
22/01:30pm 21.5 N 22 31 1009.6 - 0.0 - - - - - - -
22/01:23pm 21.8 N 19 31 1009.6 - 0.0 - - - - - - -
22/01:00pm 20.4 N 23 31 1009.5 - 0.0 - - - - - - -
22/12:38pm 20.3 N 20 30 1009.7 - 0.0 - - - - - - -
22/12:30pm 20.7 N 22 30 1009.8 - 0.0 - - - - - - -
22/12:00pm 21.1 N 21 28 1010.4 - 0.0 - - - - - - -
22/11:30am 19.3 N 21 30 1010.7 - 0.0 - - - - - - -
22/11:08am 19.5 N 21 31 1011.1 - 0.0 - - - - - - -
22/11:00am 19.7 N 21 29 1011.0 - 0.0 - - - - - - -
22/10:33am 18.9 N 20 30 1010.6 - 0.0 - - - - - - -
22/10:30am 18.9 N 20 27 1010.6 - 0.0 - - - - - - -
22/10:01am 18.0 N 18 29 1010.7 - 0.0 - - - - - - -
22/10:00am 18.0 N 19 29 1010.7 - 0.0 - - - - - - -
22/09:30am 17.2 N 19 26 1011.4 - 0.0 - - - - - - -
22/09:00am 17.6 N 14 20 1010.8 - 0.0 - - - - - - -
22/08:30am 17.3 N 15 20 1012.0 - 0.0 - - - - - - -
22/08:00am 16.4 N 12 19 1012.1 - 0.0 - - - - - - -
22/07:30am 16.0 N 11 16 1012.0 - 0.0 - - - - - - -
22/07:00am 16.1 N 12 17 1012.4 - 0.0 - - - - - - -
22/06:30am 16.3 N 16 23 1012.1 - 0.0 - - - - - - -
22/06:00am 16.4 N 18 25 1010.9 - 0.0 - - - - - - -
22/05:36am 16.6 NNE 20 30 1009.8 - 0.0 - - - - - - -
22/05:30am 16.7 N 22 30 1009.8 - 0.0 - - - - - - -
22/05:15am 16.3 N 18 31 1010.4 - 0.0 - - - - - - -
22/05:00am 15.9 N 16 21 1011.1 - 0.0 - - - - - - -
22/04:30am 14.3 N 11 14 1011.7 - 0.0 - - - - - - -
22/04:00am 14.1 N 11 13 1011.9 - 0.0 - - - - - - -
22/03:30am 14.1 N 11 13 1012.1 - 0.0 - - - - - - -
22/03:00am 14.1 N 10 13 1012.5 - 0.0 - - - - - - -
22/02:30am 14.5 N 10 13 1012.8 - 0.0 - - - - - - -
22/02:00am 14.8 N 11 14 1013.2 - 0.0 - - - - - - -
22/01:30am 15.1 N 12 15 1013.3 - 0.0 - - - - - - -
22/01:00am 15.1 N 12 17 1013.6 - 0.0 - - - - - - -
22/12:30am 15.3 N 11 14 1013.9 - 0.0 - - - - - - -
22/12:00am 15.5 N 13 17 1014.2 - 0.0 - - - - - - -
 
Date/Time
CST
Temp
°C
Wind Pressure Rain since
9am
mm
Weather Cloud Vis
km
Sea
Height
m
Swell
Dir  Spd
kts
Gust
kts
hPa Trend Height
m
Period
s
Dir
21/11:30pm 15.6 N 14 18 1014.2 - 0.0 - - - - - - -
21/11:00pm 15.1 N 12 15 1014.4 - 0.0 - - - - - - -
21/10:30pm 14.8 N 11 14 1014.6 - 0.0 - - - - - - -
21/10:00pm 14.7 N 10 13 1014.7 - 0.0 - - - - - - -
21/09:30pm 15.1 N 11 14 1014.8 - 0.0 - - - - - - -
21/09:00pm 15.2 N 10 13 1014.7 - 0.0 - - - - - - -
21/08:30pm 15.0 N 10 13 1014.6 - 0.0 - - - - - - -
21/08:00pm 14.2 N 8 10 1014.5 - 0.0 - - - - - - -
21/07:30pm 14.1 N 8 11 1014.6 - 0.0 - - - - - - -
21/07:00pm 14.4 N 8 10 1014.5 - 0.0 - - - - - - -
21/06:30pm 15.2 N 8 10 1014.3 - 0.0 - - - - - - -
21/06:00pm 16.1 NNE 7 8 1014.3 - 0.0 - - - - - - -
21/05:30pm 17.1 NNE 7 10 1014.2 - 0.0 - - - - - - -
21/05:00pm 18.8 NNE 10 13 1014.2 - 0.0 - - - - - - -
21/04:30pm 20.4 N 10 14 1014.2 - 0.0 - - - - - - -
21/04:00pm 21.3 N 11 16 1014.2 - 0.0 - - - - - - -
21/03:30pm 21.7 N 13 17 1014.1 - 0.0 - - - - - - -
21/03:00pm 22.2 NNW 12 17 1014.1 - 0.0 - - - - - - -
21/02:30pm 22.2 N 13 20 1014.1 - 0.0 - - - - - - -
21/02:00pm 22.4 NNW 13 17 1014.3 - 0.0 - - - - - - -
21/01:30pm 22.3 NNW 13 17 1014.5 - 0.0 - - - - - - -
21/01:00pm 22.0 NNW 13 19 1014.7 - 0.0 - - - - - - -
21/12:30pm 21.3 NNW 14 20 1015.0 - 0.0 - - - - - - -
21/12:00pm 21.5 NNW 13 18 1015.4 - 0.0 - - - - - - -
21/11:30am 20.6 N 14 19 1015.7 - 0.0 - - - - - - -
21/11:00am 19.9 N 13 18 1015.9 - 0.0 - - - - - - -
21/10:30am 19.3 N 13 18 1016.1 - 0.0 - - - - - - -
21/10:00am 18.6 NNW 9 13 1016.4 - 0.0 - - - - - - -
21/09:30am 17.1 N 10 14 1016.3 - 0.0 - - - - - - -
21/09:00am 16.1 N 7 9 1016.2 - 0.2 - - - - - - -
21/08:30am 14.5 NNW 7 9 1016.0 - 0.2 - - - - - - -
21/08:00am 13.1 NNW 9 12 1015.6 - 0.2 - - - - - - -
21/07:30am 12.1 NNW 10 12 1015.4 - 0.2 - - - - - - -
21/07:00am 11.3 NNW 9 11 1015.1 - 0.2 - - - - - - -
21/06:30am 11.4 NNW 9 10 1014.8 - 0.2 - - - - - - -
21/06:00am 11.8 NNW 9 11 1014.5 - 0.2 Recent precip. - - - - - -
21/05:30am 11.8 NNW 8 9 1014.2 - 0.0 - - - - - - -
21/05:00am 12.1 N 8 9 1014.1 - 0.0 - - - - - - -
21/04:30am 11.5 N 7 9 1014.1 - 0.0 - - - - - - -
21/04:00am 11.1 N 7 8 1014.1 - 0.0 - - - - - - -
21/03:30am 11.9 N 6 8 1014.0 - 0.0 - - - - - - -
21/03:00am 12.1 N 5 7 1014.0 - 0.0 - - - - - - -
21/02:30am 12.0 N 5 6 1014.2 - 0.0 - - - - - - -
21/02:00am 12.3 N 4 6 1014.4 - 0.0 - - - - - - -
21/01:30am 12.7 N 5 6 1014.4 - 0.0 - - - - - - -
21/01:00am 12.9 N 4 5 1014.7 - 0.0 - - - - - - -
21/12:30am 13.0 N 5 6 1015.0 - 0.0 - - - - - - -
21/12:00am 13.2 NNW 5 6 1015.0 - 0.0 - - - - - - -
 
Date/Time
CST
Temp
°C
Wind Pressure Rain since
9am
mm
Weather Cloud Vis
km
Sea
Height
m
Swell
Dir  Spd
kts
Gust
kts
hPa Trend Height
m
Period
s
Dir
20/11:30pm 13.4 NNW 5 6 1014.9 - 0.0 - - - - - - -
20/11:00pm 13.2 N 4 5 1015.0 - 0.0 - - - - - - -
20/10:30pm 13.5 NNW 4 6 1015.1 - 0.0 - - - - - - -
20/10:00pm 13.6 NNW 4 5 1015.0 - 0.0 - - - - - - -
20/09:30pm 13.8 NNW 4 5 1014.9 - 0.0 - - - - - - -
20/09:00pm 14.0 N 5 7 1014.9 - 0.0 - - - - - - -
20/08:30pm 14.2 NNW 5 7 1014.8 - 0.0 - - - - - - -
20/08:00pm 14.3 NNW 5 7 1014.7 - 0.0 - - - - - - -
20/07:30pm 14.6 N 7 9 1014.6 - 0.0 - - - - - - -
20/07:00pm 14.8 N 7 8 1014.4 - 0.0 - - - - - - -
20/06:30pm 15.4 NNW 7 9 1014.1 - 0.0 - - - - - - -
20/06:00pm 15.7 NNW 6 7 1013.7 - 0.0 - - - - - - -
20/05:30pm 15.9 NNW 5 6 1013.2 - 0.0 - - - - - - -
20/05:00pm 16.2 NW 5 7 1013.0 - 0.0 - - - - - - -
20/04:30pm 16.6 NW 8 14 1012.9 - 0.0 - - - - - - -
20/04:00pm 17.4 NNW 10 14 1012.7 - 0.0 - - - - - - -
20/03:30pm 18.4 NW 11 16 1012.6 - 0.0 - - - - - - -
20/03:00pm 18.0 NNW 11 15 1012.6 - 0.0 - - - - - - -
20/02:30pm 18.3 NNW 14 19 1012.5 - 0.0 - - - - - - -

Other Formats:

Comma delimited format used in spreadsheet applications
http://www.bom.gov.au/fwo/IDS60701/IDS60701.95806.axf

JavaScript Object Notation format (JSON) in row-major order
http://www.bom.gov.au/fwo/IDS60701/IDS60701.95806.json